createdAt,value
2019-03-18T05:00:14.373Z,74.60
2019-03-18T05:02:36.907Z,72.50
2019-03-18T05:04:59.364Z,73.20
2019-03-18T05:07:21.826Z,73.50
2019-03-18T05:09:44.296Z,73.30
2019-03-18T05:12:06.931Z,73.10
2019-03-18T05:14:32.071Z,73.00
2019-03-18T06:00:51.722Z,76.70
2019-03-18T06:03:14.206Z,77.10
2019-03-18T06:05:36.727Z,77.20
2019-03-18T06:08:06.416Z,77.30
2019-03-18T06:10:28.951Z,77.10
2019-03-18T06:12:51.390Z,77.60
2019-03-18T07:05:01.364Z,74.80
2019-03-18T07:07:25.550Z,74.90
2019-03-18T07:09:48.643Z,74.80
2019-03-18T07:12:11.279Z,74.50
2019-03-18T07:14:36.150Z,74.40
2019-03-18T07:31:28.536Z,74.30
2019-03-18T07:33:59.938Z,73.60
2019-03-18T07:36:22.823Z,73.50
2019-03-18T07:38:45.458Z,73.60
2019-03-18T07:41:07.929Z,73.00
2019-03-18T07:43:30.396Z,73.30
2019-03-18T07:45:52.922Z,73.60
2019-03-18T09:01:31.770Z,64.10
2019-03-18T09:03:54.227Z,62.00
2019-03-18T09:06:38.032Z,63.20
2019-03-18T09:09:00.550Z,63.50
2019-03-18T09:11:22.999Z,63.90
2019-03-18T09:13:45.466Z,63.10
2019-03-18T10:02:06.975Z,71.30
2019-03-18T10:04:29.432Z,72.90
2019-03-18T10:07:10.268Z,69.60
2019-03-18T10:09:32.710Z,69.00
2019-03-18T10:11:55.155Z,67.60
2019-03-18T10:14:19.635Z,67.90
2019-03-18T10:33:40.759Z,62.10
2019-03-18T10:36:03.221Z,59.80
2019-03-18T10:38:25.763Z,53.00
2019-03-18T10:40:48.231Z,52.90
2019-03-18T10:43:10.761Z,50.00
2019-03-18T10:45:33.282Z,46.40
2019-03-18T10:47:55.828Z,45.30
2019-03-18T10:50:18.403Z,42.40
2019-03-18T10:52:40.910Z,42.60
2019-03-18T10:55:03.501Z,42.50
2019-03-18T10:57:26.626Z,43.90
2019-03-18T10:59:49.068Z,45.80
2019-03-18T11:02:11.589Z,45.10
2019-03-18T11:04:34.607Z,45.70
2019-03-18T11:06:58.046Z,46.80
2019-03-18T11:09:23.030Z,42.70
2019-03-18T11:11:52.315Z,41.40
2019-03-18T11:14:15.875Z,42.00
2019-03-18T11:43:16.474Z,43.90
2019-03-18T11:45:39.716Z,44.30
2019-03-18T11:48:02.367Z,40.60
2019-03-18T11:50:24.930Z,39.20
2019-03-18T11:52:47.546Z,37.90
2019-03-18T11:55:12.370Z,37.20
2019-03-18T11:57:34.807Z,34.30
2019-03-18T11:59:57.266Z,33.00
2019-03-18T12:02:27.702Z,33.20
2019-03-18T12:04:44.035Z,33.90
2019-03-18T12:07:06.507Z,32.90
2019-03-18T12:09:29.170Z,31.30
2019-03-18T12:11:51.595Z,29.60
2019-03-18T12:14:14.023Z,29.30
2019-03-18T12:19:13.560Z,29.10
2019-03-18T12:21:40.742Z,32.80
2019-03-18T12:24:03.395Z,35.30
2019-03-18T12:29:29.327Z,34.10
2019-03-18T12:32:04.488Z,28.80
2019-03-18T12:37:48.160Z,27.70
2019-03-18T12:46:14.040Z,29.00
2019-03-18T12:48:50.028Z,32.30
2019-03-18T12:59:59.389Z,39.20
2019-03-18T13:02:35.355Z,40.50
2019-03-18T13:05:10.758Z,42.10
2019-03-18T13:07:46.158Z,42.20
2019-03-18T13:13:10.867Z,43.30
2019-03-18T13:43:03.914Z,22.50
2019-03-18T13:45:26.618Z,20.30
2019-03-18T13:47:49.054Z,22.40
2019-03-18T13:50:12.991Z,24.60
2019-03-18T13:52:36.101Z,27.30
2019-03-18T13:54:59.330Z,29.10
2019-03-18T13:57:21.989Z,29.90
2019-03-18T13:59:44.987Z,32.00
2019-03-18T14:02:07.643Z,32.90
2019-03-18T14:04:30.212Z,34.30
2019-03-18T14:06:52.798Z,34.10
2019-03-18T14:09:15.483Z,35.40
2019-03-18T14:11:38.042Z,35.80
2019-03-18T14:14:00.605Z,35.90
2019-03-18T14:19:26.689Z,33.30
2019-03-18T14:21:49.804Z,32.60
2019-03-18T14:24:12.911Z,32.30
2019-03-18T14:26:35.555Z,33.80
2019-03-18T14:28:57.992Z,33.50
2019-03-18T14:31:20.452Z,29.60
2019-03-18T14:33:42.995Z,25.20
2019-03-18T14:36:05.450Z,24.20
2019-03-18T14:38:27.874Z,24.70
2019-03-18T14:40:50.301Z,24.10
2019-03-18T14:43:12.743Z,24.90
2019-03-18T14:45:35.268Z,25.20
2019-03-18T14:47:57.694Z,23.80
2019-03-18T14:50:20.228Z,23.20
2019-03-18T14:52:42.853Z,24.90
2019-03-18T14:55:05.625Z,26.60
2019-03-18T14:57:28.191Z,28.10
2019-03-18T14:59:50.613Z,29.30
2019-03-18T15:02:13.060Z,30.60
2019-03-18T15:04:35.511Z,32.30
2019-03-18T15:06:57.979Z,33.10
2019-03-18T15:09:20.415Z,33.50
2019-03-18T15:11:43.075Z,34.70
2019-03-18T15:14:05.642Z,35.70
2019-03-18T15:21:58.586Z,38.30
2019-03-18T15:24:21.204Z,39.10
2019-03-18T15:26:44.151Z,40.40
2019-03-18T15:29:06.802Z,41.00
2019-03-18T15:31:29.360Z,42.20
2019-03-18T15:33:51.909Z,43.70
2019-03-18T15:36:14.878Z,46.00
2019-03-18T15:38:38.412Z,47.20
2019-03-18T15:41:00.866Z,48.20
2019-03-18T15:43:23.316Z,49.70
2019-03-18T15:45:45.767Z,50.90
2019-03-18T15:48:08.830Z,52.40
2019-03-18T15:50:31.638Z,53.00
2019-03-18T15:52:54.175Z,54.00
2019-03-18T15:55:16.611Z,54.50
2019-03-18T15:57:39.081Z,55.40
2019-03-18T16:00:01.599Z,55.80
2019-03-18T16:02:25.356Z,56.30
2019-03-18T16:04:47.824Z,56.40
2019-03-18T16:07:10.346Z,56.80
2019-03-18T16:09:32.810Z,57.90
2019-03-18T16:11:55.243Z,57.50
2019-03-18T16:14:17.847Z,58.20
2019-03-18T16:33:44.613Z,40.70
2019-03-18T16:36:07.737Z,43.10
2019-03-18T16:38:30.994Z,44.10
2019-03-18T16:40:53.624Z,45.30
2019-03-18T16:43:16.133Z,47.90
2019-03-18T16:45:38.757Z,50.60
2019-03-18T16:48:01.179Z,52.10
2019-03-18T16:50:23.673Z,54.00
2019-03-18T16:52:46.198Z,55.00
2019-03-18T16:55:09.477Z,55.40
2019-03-18T16:57:32.546Z,56.50
2019-03-18T16:59:55.550Z,56.70
2019-03-18T17:02:18.994Z,57.10
2019-03-18T17:04:41.837Z,57.80
2019-03-18T17:07:04.915Z,57.80
2019-03-18T17:09:27.978Z,58.20
2019-03-18T17:11:50.681Z,58.60
2019-03-18T17:14:13.125Z,58.70
2019-03-18T17:33:42.219Z,61.50
2019-03-18T17:36:05.382Z,62.00
2019-03-18T17:38:28.807Z,62.70
2019-03-18T17:40:52.170Z,63.20
2019-03-18T17:43:15.188Z,63.60
2019-03-18T17:45:38.202Z,63.80
2019-03-18T17:48:01.477Z,64.70
2019-03-18T17:50:24.820Z,65.20
2019-03-18T17:53:01.701Z,65.80
2019-03-18T17:55:14.685Z,66.20
2019-03-18T17:57:39.607Z,66.50
2019-03-18T18:00:02.405Z,66.70
2019-03-18T18:02:27.243Z,66.90
2019-03-18T18:05:02.066Z,67.30
2019-03-18T18:07:17.653Z,68.00
2019-03-18T18:09:46.034Z,68.50
2019-03-18T18:12:10.818Z,69.50
2019-03-18T18:14:34.205Z,69.90
2019-03-18T18:16:58.027Z,70.40
2019-03-18T18:19:26.768Z,70.40
2019-03-18T18:21:53.504Z,71.00
2019-03-18T18:24:16.623Z,71.70
2019-03-18T18:26:39.631Z,71.50
2019-03-18T18:29:02.768Z,71.50
2019-03-18T18:31:25.980Z,71.40
2019-03-18T18:33:49.776Z,71.30
2019-03-18T18:36:12.905Z,71.50
2019-03-18T18:38:36.882Z,71.60
2019-03-18T18:41:02.933Z,71.50
2019-03-18T18:43:27.449Z,71.30
2019-03-18T18:45:51.594Z,71.50
2019-03-18T18:48:14.530Z,71.50
2019-03-18T18:50:39.921Z,71.90
2019-03-18T18:53:02.951Z,72.10
2019-03-18T18:55:27.727Z,72.40
2019-03-18T18:57:50.891Z,72.60
2019-03-18T19:00:14.681Z,72.20
2019-03-18T19:02:38.827Z,72.20
2019-03-18T19:05:01.437Z,72.10
2019-03-18T19:07:24.150Z,72.70
2019-03-18T19:09:46.677Z,72.40
2019-03-18T19:12:09.250Z,72.60
2019-03-18T19:14:31.861Z,73.10
2019-03-18T19:16:54.940Z,72.60
2019-03-18T19:19:17.762Z,72.60
2019-03-18T19:21:40.403Z,73.00
2019-03-18T19:24:02.939Z,72.80
2019-03-18T19:26:26.817Z,73.20
2019-03-18T19:28:49.339Z,73.80
2019-03-18T19:31:11.771Z,73.30
2019-03-18T19:33:34.311Z,73.60
2019-03-18T19:35:56.854Z,74.20
2019-03-18T19:38:19.271Z,73.80
2019-03-18T19:40:41.735Z,74.00
2019-03-18T19:43:04.190Z,74.20
2019-03-18T19:45:27.288Z,74.40
2019-03-18T19:47:49.932Z,74.40
2019-03-18T19:50:14.926Z,74.50
2019-03-18T19:52:37.615Z,74.50
2019-03-18T19:55:00.140Z,74.90
2019-03-18T19:57:22.794Z,75.40
2019-03-18T19:59:45.384Z,75.40
2019-03-18T20:02:07.931Z,75.50
2019-03-18T20:04:30.395Z,75.90
2019-03-18T20:06:52.808Z,76.30
2019-03-18T20:09:15.540Z,76.10
2019-03-18T20:11:38.107Z,76.10
2019-03-18T20:14:10.194Z,75.90
2019-03-18T21:01:54.639Z,82.00
2019-03-18T21:04:17.246Z,82.90
2019-03-18T21:06:39.794Z,83.30
2019-03-18T21:09:22.835Z,83.10
2019-03-18T21:11:58.925Z,83.40
2019-03-18T21:14:33.739Z,83.30
2019-03-18T21:19:47.491Z,82.90
